Time;durP1;ratioP1;P1;durP2;ratioP2;P2;SDS_P1;SDS_P2;PMS_P1;PMS_P2;Temp;Humidity;BMP_temperature;BMP_pressure;BME280_temperature;BME280_humidity;BME280_pressure;Samples;Min_cycle;Max_cycle;Signal;HPM_P1;HPM_P2
2022/02/14 08:27:31;;;;;;;30.33;16.65;;;;;;;5.03;56.81;100494.28;5745876;23;20047;-92
2022/02/14 08:30:05;;;;;;;28.80;19.10;;;;;;;4.20;56.99;100352.50;5159658;23;20034;-92
2022/02/14 08:32:30;;;;;;;29.57;17.67;;;;;;;5.23;56.59;100477.03;4995723;28;20094;-93
2022/02/14 08:37:31;;;;;;;27.67;17.37;;;;;;;4.66;56.74;100368.94;5063855;23;20055;-94
2022/02/14 08:39:56;;;;;;;27.93;16.77;;;;;;;4.09;56.38;100288.84;4977300;28;20038;-96
2022/02/14 08:42:22;;;;;;;112.87;26.47;;;;;;;4.66;56.55;100358.47;4959702;28;20486;-95
2022/02/14 08:44:47;;;;;;;58.50;22.77;;;;;;;5.74;56.49;100522.66;4960195;28;20042;-95
2022/02/14 08:47:14;;;;;;;59.47;24.23;;;;;;;5.09;56.29;100421.34;4976440;28;20023;-95
2022/02/14 08:49:39;;;;;;;32.30;18.50;;;;;;;5.15;56.10;100393.84;4973658;28;20047;-95
2022/02/14 08:52:05;;;;;;;29.23;17.57;;;;;;;5.91;55.76;100491.66;4975223;28;20053;-93
2022/02/14 08:54:30;;;;;;;26.53;18.90;;;;;;;5.63;55.55;100464.22;4972135;28;20042;-95
2022/02/14 08:56:57;;;;;;;30.33;20.20;;;;;;;5.70;55.76;100460.16;4968163;28;20018;-95
2022/02/14 08:59:22;;;;;;;43.47;18.13;;;;;;;5.69;55.10;100434.91;4978813;28;20136;-96
2022/02/14 09:01:48;;;;;;;28.23;16.60;;;;;;;6.07;54.92;100489.47;4956159;28;20499;-96
2022/02/14 09:04:14;;;;;;;25.70;16.67;;;;;;;6.19;55.00;100506.81;4964073;28;20030;-96
2022/02/14 09:06:39;;;;;;;27.33;19.40;;;;;;;4.75;54.58;100260.13;4964380;28;20129;-96
2022/02/14 09:09:05;;;;;;;26.00;17.03;;;;;;;5.44;54.54;100365.34;4945984;29;20062;-95
2022/02/14 09:11:30;;;;;;;27.23;17.53;;;;;;;6.03;54.57;100459.22;4950049;28;20073;-96
2022/02/14 09:13:55;;;;;;;26.20;18.10;;;;;;;6.25;54.27;100479.25;4957354;28;20027;-95
2022/02/14 09:16:21;;;;;;;25.43;17.80;;;;;;;6.56;53.98;100520.34;4952365;28;20412;-96
2022/02/14 09:18:46;;;;;;;29.83;18.23;;;;;;;5.35;53.85;100311.94;4958262;28;20031;-96
2022/02/14 09:21:12;;;;;;;25.40;16.97;;;;;;;6.15;54.00;100452.97;4954999;28;20030;-95
2022/02/14 09:23:38;;;;;;;20.23;14.03;;;;;;;6.07;53.33;100400.34;4958088;28;20038;-93
2022/02/14 09:26:03;;;;;;;38.83;19.10;;;;;;;6.82;53.59;100525.22;4965931;28;20034;-93
2022/02/14 09:28:29;;;;;;;25.50;15.10;;;;;;;6.70;52.81;100479.84;4953218;28;20582;-93
2022/02/14 09:30:55;;;;;;;23.90;17.07;;;;;;;6.91;52.76;100492.94;4954774;28;20034;-93
2022/02/14 09:33:21;;;;;;;62.33;27.23;;;;;;;6.62;52.89;100443.72;4945729;28;20038;-93
2022/02/14 09:35:47;;;;;;;22.60;17.50;;;;;;;7.10;52.71;100485.13;4957405;28;20028;-93
2022/02/14 09:38:13;;;;;;;120.83;32.00;;;;;;;6.78;52.22;100448.53;4987877;28;20030;-93
2022/02/14 09:40:39;;;;;;;60.37;23.97;;;;;;;7.33;52.18;100481.34;4956560;28;20072;-93
2022/02/14 09:43:04;;;;;;;29.52;19.60;;;;;;;7.12;51.93;100458.75;4957346;28;20500;-94
2022/02/14 09:45:30;;;;;;;21.95;15.35;;;;;;;7.00;51.30;100418.63;4957089;28;20034;-94
2022/02/14 09:48:03;;;;;;;27.17;19.55;;;;;;;6.65;51.09;100346.38;4956132;28;20082;-94
2022/02/14 09:50:29;;;;;;;;;;;;;;;7.58;51.56;100484.47;4975635;28;20487;-95
2022/02/14 09:52:55;;;;;;;21.60;12.35;;;;;;;6.60;50.67;100308.38;4961718;28;20443;-94
2022/02/14 09:55:20;;;;;;;16.00;11.98;;;;;;;7.50;50.51;100440.47;4963559;28;20129;-92
2022/02/14 09:57:46;;;;;;;16.15;10.60;;;;;;;7.02;50.38;100351.06;4953627;28;20484;-92
2022/02/14 10:00:12;;;;;;;15.18;11.13;;;;;;;7.11;50.17;100344.16;4963556;28;20459;-93
2022/02/14 10:02:38;;;;;;;15.20;10.85;;;;;;;7.84;50.08;100446.16;4956702;28;20074;-93
2022/02/14 10:05:09;;;;;;;15.18;10.50;;;;;;;8.10;49.79;100464.84;4976129;28;20117;-93
2022/02/14 10:07:48;;;;;;;13.23;9.20;;;;;;;7.25;49.07;100307.00;4976177;28;20032;-93
2022/02/14 10:10:24;;;;;;;15.55;7.93;;;;;;;7.62;48.72;100368.41;4959023;28;20515;-93
2022/02/14 10:12:55;;;;;;;16.70;9.73;;;;;;;8.21;48.86;100448.09;4989411;28;20101;-92
2022/02/14 10:15:21;;;;;;;13.50;9.18;;;;;;;8.29;48.71;100432.44;4957049;28;20029;-93
2022/02/14 10:17:48;;;;;;;14.20;9.73;;;;;;;8.20;48.43;100397.28;4952012;29;20019;-93
2022/02/14 10:20:19;;;;;;;16.95;9.90;;;;;;;7.17;48.24;100222.81;4940972;28;20035;-94
2022/02/14 10:23:06;;;;;;;12.95;9.98;;;;;;;7.68;47.93;100311.00;4947461;28;20026;-93
2022/02/14 10:25:31;;;;;;;11.50;8.13;;;;;;;8.09;47.80;100338.72;4988022;28;20030;-94
2022/02/14 10:28:16;;;;;;;13.93;9.35;;;;;;;8.64;47.74;100413.41;4956112;28;20044;-93
2022/02/14 10:31:07;;;;;;;11.30;8.32;;;;;;;8.78;47.85;100410.28;4957893;28;20030;-93
2022/02/14 10:33:56;;;;;;;9.35;7.68;;;;;;;7.26;47.74;100190.44;4941383;29;20043;-94
2022/02/14 10:36:34;;;;;;;7.68;5.20;;;;;;;8.96;46.91;100401.63;4934026;28;1158968;-93
2022/02/14 10:39:16;;;;;;;103.72;16.08;;;;;;;9.07;46.65;100394.38;4973094;28;20050;-93
2022/02/14 10:41:43;;;;;;;;;;;;;;;8.97;46.66;100384.88;4977807;28;20010;-94
2022/02/14 10:44:11;;;;;;;8.18;5.53;;;;;;;9.04;46.77;100378.03;4982692;28;19902;-93
2022/02/14 10:46:37;;;;;;;6.60;4.82;;;;;;;8.47;46.63;100307.06;4981060;28;20018;-93
2022/02/14 10:49:04;;;;;;;13.75;6.97;;;;;;;8.54;46.70;100289.72;4993472;28;20031;-94
2022/02/14 10:51:30;;;;;;;6.68;4.60;;;;;;;9.11;45.79;100363.28;4964611;28;20093;-93
2022/02/14 10:53:56;;;;;;;7.57;5.30;;;;;;;8.92;46.16;100351.06;4963091;28;20038;-92
2022/02/14 10:56:23;;;;;;;14.98;6.35;;;;;;;8.61;46.12;100258.38;4964645;28;20026;-94
2022/02/14 10:59:05;;;;;;;15.98;8.77;;;;;;;9.28;45.84;100344.03;4963079;28;20097;-94
2022/02/14 11:01:31;;;;;;;9.18;5.35;;;;;;;9.00;45.98;100308.19;4960541;28;20049;-93
2022/02/14 11:03:57;;;;;;;5.57;4.20;;;;;;;8.98;45.79;100304.88;4963720;28;20034;-93
2022/02/14 11:06:23;;;;;;;7.00;4.72;;;;;;;9.30;45.64;100323.63;4961623;28;20026;-94
2022/02/14 11:08:48;;;;;;;12.65;7.57;;;;;;;9.31;45.89;100330.56;4973412;28;20117;-94
2022/02/14 11:11:14;;;;;;;10.68;6.43;;;;;;;8.50;45.59;100198.06;4973981;28;20460;-93
2022/02/14 11:13:41;;;;;;;11.90;8.43;;;;;;;8.29;45.37;100127.25;4962259;28;20030;-92
2022/02/14 11:16:09;;;;;;;9.80;7.63;;;;;;;8.15;45.66;100127.72;4979013;28;20085;-92
2022/02/14 11:18:39;;;;;;;87.68;20.38;;;;;;;9.56;45.39;100316.59;4961976;28;20041;-93
2022/02/14 11:21:06;;;;;;;14.00;6.72;;;;;;;9.31;45.57;100290.19;4961675;28;20443;-92
2022/02/14 11:23:40;;;;;;;172.45;24.45;;;;;;;9.60;45.69;100322.41;4984097;28;20085;-93
2022/02/14 11:26:30;;;;;;;9.73;5.18;;;;;;;9.12;45.62;100257.75;4976723;28;20456;-93
2022/02/14 11:29:27;;;;;;;12.10;6.72;;;;;;;8.87;45.21;100190.84;4961303;28;20109;-93
2022/02/14 11:32:26;;;;;;;8.35;5.18;;;;;;;8.92;45.61;100195.69;4954852;28;20038;-93
2022/02/14 11:35:06;;;;;;;9.73;6.30;;;;;;;9.54;44.74;100308.03;4954264;28;20054;-94
2022/02/14 11:38:08;;;;;;;6.97;5.20;;;;;;;9.65;45.58;100296.41;4963928;28;20042;-92
2022/02/14 11:40:39;;;;;;;9.40;4.65;;;;;;;8.69;45.51;100181.28;4876145;29;20122;-92
2022/02/14 11:43:19;;;;;;;6.47;5.45;;;;;;;8.99;44.96;100207.28;4977048;28;20048;-92
2022/02/14 11:46:25;;;;;;;8.90;5.28;;;;;;;9.61;45.00;100296.88;4957082;28;20039;-94
2022/02/14 11:49:12;;;;;;;8.48;5.70;;;;;;;9.57;44.91;100293.72;4969112;28;20042;-93
2022/02/14 11:51:53;;;;;;;16.38;7.00;;;;;;;9.56;45.08;100290.25;4942371;29;20041;-93
2022/02/14 11:54:30;;;;;;;15.02;7.57;;;;;;;9.54;44.70;100283.47;4951639;28;20026;-93
2022/02/14 11:57:31;;;;;;;9.40;5.40;;;;;;;9.14;44.73;100257.63;4983655;28;20088;-93
2022/02/14 12:00:14;;;;;;;7.18;5.05;;;;;;;9.42;44.79;100279.41;4964700;28;20042;-93
2022/02/14 12:02:53;;;;;;;8.18;6.20;;;;;;;9.39;44.92;100277.91;4939390;28;20530;-92
2022/02/14 12:05:42;;;;;;;9.25;5.80;;;;;;;9.32;45.01;100279.50;4969826;28;20117;-92
2022/02/14 12:08:08;;;;;;;9.68;5.65;;;;;;;8.34;44.97;100132.09;4974660;28;20033;-93
2022/02/14 12:10:55;;;;;;;7.38;4.78;;;;;;;9.23;44.60;100275.97;4974922;28;20026;-92
2022/02/14 12:13:25;;;;;;;7.78;5.93;;;;;;;9.20;44.96;100276.28;4957134;28;20058;-94
2022/02/14 12:21:16;;;;;;;10.13;7.38;;;;;;;9.26;45.42;100266.94;4982407;28;20521;-93
2022/02/14 12:24:10;;;;;;;8.55;5.80;;;;;;;9.17;45.34;100252.88;4969564;28;20121;-93
2022/02/14 12:26:35;;;;;;;7.68;5.22;;;;;;;8.70;45.13;100194.31;4953755;28;20484;-93
2022/02/14 12:31:55;;;;;;;9.23;6.68;;;;;;;8.96;45.35;100215.47;4967372;28;20112;-94
2022/02/14 12:34:32;;;;;;;8.63;6.05;;;;;;;8.71;45.24;100171.44;4960071;28;20038;-93
2022/02/14 12:37:00;;;;;;;9.13;5.65;;;;;;;8.29;45.33;100111.47;4957590;28;20080;-93
2022/02/14 12:39:41;;;;;;;10.15;6.45;;;;;;;9.24;45.18;100245.19;4988602;28;20038;-93
2022/02/14 12:42:08;;;;;;;7.95;5.97;;;;;;;9.29;45.53;100248.19;4974645;28;20077;-94
2022/02/14 12:44:34;;;;;;;10.70;6.57;;;;;;;8.51;45.25;100124.22;4970315;28;20031;-94
2022/02/14 12:46:59;;;;;;;9.70;6.93;;;;;;;8.38;45.03;100136.09;4956098;28;20026;-94
2022/02/14 12:49:25;;;;;;;7.88;6.05;;;;;;;9.13;45.16;100229.63;4956925;28;20114;-93
2022/02/14 12:51:50;;;;;;;8.32;5.22;;;;;;;9.32;45.39;100244.41;4955935;28;20030;-93
2022/02/14 12:54:16;;;;;;;9.60;5.72;;;;;;;8.14;45.15;100069.03;4957569;28;20468;-92
2022/02/14 12:56:43;;;;;;;6.55;5.15;;;;;;;8.13;44.98;100051.63;4957927;28;20029;-93
2022/02/14 12:59:13;;;;;;;7.22;5.25;;;;;;;8.75;44.59;100164.91;4955425;28;20039;-93
2022/02/14 13:01:43;;;;;;;8.35;5.93;;;;;;;8.82;44.88;100219.44;4958578;28;20034;-93
2022/02/14 13:04:10;;;;;;;8.32;6.53;;;;;;;7.97;45.19;100036.50;4975299;28;20035;-93
2022/02/14 13:06:46;;;;;;;8.40;6.20;;;;;;;9.22;45.16;100236.59;4983231;28;20126;-92
2022/02/14 13:09:32;;;;;;;9.35;6.07;;;;;;;9.24;45.47;100247.81;4970810;28;20042;-92
2022/02/14 13:12:05;;;;;;;10.15;6.97;;;;;;;9.25;45.48;100236.28;4955345;28;20035;-92
2022/02/14 13:14:44;;;;;;;8.27;6.47;;;;;;;9.05;45.50;100188.22;4964162;28;20022;-93
2022/02/14 13:17:17;;;;;;;7.10;6.20;;;;;;;9.31;45.27;100234.84;4960255;28;20169;-93
2022/02/14 13:19:49;;;;;;;11.30;6.40;;;;;;;9.34;45.00;100238.00;4947138;28;20027;-92
2022/02/14 13:22:30;;;;;;;9.43;7.13;;;;;;;8.66;44.94;100128.94;4956573;28;20060;-93
2022/02/14 13:24:58;;;;;;;7.30;6.18;;;;;;;8.66;45.15;100123.69;4961607;28;20504;-93
2022/02/14 13:27:32;;;;;;;6.90;5.93;;;;;;;9.42;45.24;100243.34;4961248;28;20042;-92
2022/02/14 13:30:06;;;;;;;14.20;10.93;;;;;;;9.13;45.09;100192.72;4951281;28;20035;-93
2022/02/14 13:32:36;;;;;;;7.93;6.18;;;;;;;8.32;45.18;100070.88;4957716;28;20050;-92
2022/02/14 13:35:18;;;;;;;9.90;7.82;;;;;;;8.89;45.05;100138.03;4961568;28;20027;-92
2022/02/14 13:37:45;;;;;;;10.85;7.72;;;;;;;9.49;45.10;100231.22;4947882;28;20081;-93
2022/02/14 13:40:34;;;;;;;11.80;7.95;;;;;;;9.54;44.88;100228.94;4976197;28;20423;-92
2022/02/14 13:43:03;;;;;;;6.25;5.60;;;;;;;9.57;44.78;100233.91;4962363;28;20058;-92
2022/02/14 13:45:52;;;;;;;9.43;6.57;;;;;;;9.56;45.00;100224.34;4972485;28;20046;-95
2022/02/14 13:48:29;;;;;;;9.55;7.60;;;;;;;9.00;44.84;100136.97;4958828;28;20048;-92
2022/02/14 13:51:00;;;;;;;7.50;6.00;;;;;;;9.42;44.90;100190.63;4953684;28;20039;-94
2022/02/14 13:53:35;;;;;;;15.80;10.93;;;;;;;9.60;44.92;100214.31;4957002;28;20026;-95
2022/02/14 13:56:11;;;;;;;19.70;13.68;;;;;;;9.59;45.13;100214.47;4956513;28;20027;-93
2022/02/14 13:58:41;;;;;;;13.77;10.57;;;;;;;8.78;45.16;100093.50;4955740;28;20158;-95
2022/02/14 14:01:32;;;;;;;10.07;7.72;;;;;;;9.63;44.62;100229.00;4976448;28;20046;-94
2022/02/14 14:04:25;;;;;;;8.52;7.00;;;;;;;9.65;44.69;100219.13;4966010;28;20041;-93
2022/02/14 14:07:07;;;;;;;10.93;8.15;;;;;;;9.41;44.78;100172.34;4968725;28;20400;-94
2022/02/14 14:09:52;;;;;;;9.48;6.93;;;;;;;9.73;44.65;100222.66;4975801;28;20033;-93
2022/02/14 14:12:19;;;;;;;11.25;9.00;;;;;;;8.92;44.51;100069.28;4988745;28;20030;-93
2022/02/14 14:14:47;;;;;;;8.80;6.88;;;;;;;9.03;44.54;100103.25;4974682;28;20026;-93
2022/02/14 14:17:14;;;;;;;10.68;7.07;;;;;;;9.61;44.42;100189.59;4965632;28;20566;-94
2022/02/14 14:19:50;;;;;;;9.43;6.35;;;;;;;9.82;44.64;100215.63;4956657;28;20140;-94
2022/02/14 14:22:17;;;;;;;9.68;6.35;;;;;;;9.46;44.74;100176.16;4956905;28;20023;-94
2022/02/14 14:24:44;;;;;;;8.27;6.40;;;;;;;9.66;44.60;100179.44;4950665;28;20485;-93
2022/02/14 14:27:10;;;;;;;7.68;5.82;;;;;;;9.40;44.88;100163.59;4956929;28;20048;-94
2022/02/14 14:29:40;;;;;;;7.95;6.18;;;;;;;9.29;44.30;100132.25;4968373;28;20048;-94
2022/02/14 14:32:08;;;;;;;8.38;6.28;;;;;;;9.78;44.56;100209.00;4960187;28;20117;-93
2022/02/14 14:34:34;;;;;;;9.73;6.60;;;;;;;9.49;44.61;100172.38;4956906;28;20027;-94
2022/02/14 14:37:00;;;;;;;9.00;6.53;;;;;;;9.09;44.70;100151.88;4956668;28;20507;-94
2022/02/14 14:39:26;;;;;;;11.52;8.25;;;;;;;8.86;45.08;100102.28;4956878;28;20023;-94
2022/02/14 14:41:51;;;;;;;8.88;6.85;;;;;;;9.31;45.08;100180.34;4956973;28;20476;-94
2022/02/14 14:44:19;;;;;;;19.27;11.23;;;;;;;8.11;44.77;100000.13;4956502;28;20038;-93
2022/02/14 14:46:46;;;;;;;19.92;12.93;;;;;;;9.10;45.09;100151.72;4956491;28;20101;-94
2022/02/14 14:49:11;;;;;;;22.83;13.77;;;;;;;8.54;45.24;100076.53;4988517;28;20050;-95
2022/02/14 14:51:37;;;;;;;17.30;10.35;;;;;;;9.30;45.25;100199.78;4953449;28;20134;-94
2022/02/14 14:54:02;;;;;;;15.20;11.10;;;;;;;8.97;44.93;100166.25;4955678;28;20114;-94
2022/02/14 14:56:28;;;;;;;16.45;10.95;;;;;;;8.05;45.41;100000.75;4962731;28;20407;-95
2022/02/14 14:58:54;;;;;;;14.45;10.18;;;;;;;8.69;45.61;100118.94;4963568;28;20031;-94
2022/02/14 15:01:19;;;;;;;16.77;11.13;;;;;;;8.43;45.69;100105.72;4977698;28;20035;-94
2022/02/14 15:03:45;;;;;;;14.25;9.70;;;;;;;9.02;45.57;100222.78;4955883;28;20113;-93
2022/02/14 15:06:14;;;;;;;16.15;10.02;;;;;;;8.75;45.84;100143.84;4975954;28;20030;-93
2022/02/14 15:08:39;;;;;;;18.92;10.55;;;;;;;7.86;46.11;100034.09;4975937;28;20117;-95
2022/02/14 15:11:05;;;;;;;16.08;8.82;;;;;;;8.90;46.14;100166.84;4975671;28;20061;-94
2022/02/14 15:13:30;;;;;;;16.25;10.00;;;;;;;9.03;45.70;100224.44;4973239;28;20498;-94
2022/02/14 15:15:56;;;;;;;12.27;9.35;;;;;;;9.07;46.18;100196.81;4937478;29;20028;-94
2022/02/14 15:18:21;;;;;;;10.63;7.43;;;;;;;8.97;46.34;100172.34;4956193;28;20087;-94
2022/02/14 15:20:47;;;;;;;8.73;6.40;;;;;;;8.09;45.93;100058.16;4966430;28;20035;-94
2022/02/14 15:23:12;;;;;;;10.95;6.95;;;;;;;8.26;46.05;100077.56;4985808;28;20069;-95
2022/02/14 15:25:39;;;;;;;16.25;12.45;;;;;;;9.19;45.97;100255.34;4999974;28;20094;-95
2022/02/14 15:28:06;;;;;;;21.05;15.25;;;;;;;8.51;45.60;100123.38;4995801;28;20062;-95
2022/02/14 15:30:33;;;;;;;61.90;43.92;;;;;;;8.03;46.05;100069.25;4965161;28;20054;-94
2022/02/14 15:32:59;;;;;;;21.20;15.77;;;;;;;9.19;45.82;100234.28;4973320;28;20034;-93
2022/02/14 15:35:24;;;;;;;18.98;13.77;;;;;;;8.90;45.97;100193.19;4974571;28;20479;-93
2022/02/14 15:37:50;;;;;;;16.42;12.05;;;;;;;8.06;46.33;100050.56;4963087;28;20042;-93
2022/02/14 15:40:16;;;;;;;18.67;12.23;;;;;;;9.18;46.18;100224.72;4970271;28;20138;-93
2022/02/14 15:42:41;;;;;;;16.80;12.98;;;;;;;8.53;46.22;100132.78;4958789;28;20070;-93
2022/02/14 15:45:07;;;;;;;20.13;13.70;;;;;;;8.71;46.13;100185.44;4959098;28;20661;-93
2022/02/14 15:47:33;;;;;;;18.98;13.57;;;;;;;8.54;46.25;100150.22;4958648;28;20027;-93
2022/02/14 15:49:59;;;;;;;22.10;15.30;;;;;;;8.54;46.40;100152.03;4958954;28;20030;-93
2022/02/14 15:52:24;;;;;;;19.27;14.85;;;;;;;8.96;46.40;100228.66;4960399;28;20114;-93
2022/02/14 15:54:50;;;;;;;21.38;15.60;;;;;;;8.59;46.54;100157.69;4959070;28;20026;-93
2022/02/14 15:57:16;;;;;;;27.20;18.88;;;;;;;8.47;46.43;100150.97;4959248;28;20082;-93
2022/02/14 15:59:41;;;;;;;27.23;18.25;;;;;;;8.41;46.51;100127.91;4976182;28;20031;-93
2022/02/14 16:02:07;;;;;;;22.08;16.77;;;;;;;8.52;46.75;100151.34;4976290;28;20037;-93
2022/02/14 16:04:33;;;;;;;23.30;17.73;;;;;;;9.10;46.37;100245.72;4983486;28;20030;-93
2022/02/14 16:06:58;;;;;;;26.67;19.50;;;;;;;8.76;46.25;100206.03;4985715;28;20041;-92
2022/02/14 16:09:24;;;;;;;34.97;22.85;;;;;;;8.81;46.67;100224.84;4973963;28;20050;-93
2022/02/14 16:11:52;;;;;;;32.33;21.48;;;;;;;8.82;46.69;100231.78;4966547;28;20022;-93
2022/02/14 16:14:19;;;;;;;33.08;19.08;;;;;;;8.72;47.08;100223.94;4963956;28;20578;-93
2022/02/14 16:16:45;;;;;;;25.80;17.23;;;;;;;8.81;46.70;100244.09;4961911;28;20050;-93
2022/02/14 16:19:10;;;;;;;22.58;16.70;;;;;;;8.27;47.02;100153.72;4960619;28;20070;-93
2022/02/14 16:21:36;;;;;;;25.70;18.10;;;;;;;8.95;47.30;100249.88;4975244;28;20088;-93
2022/02/14 16:24:03;;;;;;;26.95;17.67;;;;;;;7.68;47.04;100032.41;4965813;28;20073;-96
2022/02/14 16:26:28;;;;;;;26.88;18.85;;;;;;;8.71;47.00;100218.81;4964698;28;20027;-96
2022/02/14 16:28:56;;;;;;;28.67;18.80;;;;;;;9.10;47.52;100256.25;4951605;28;20027;-95
2022/02/14 16:31:21;;;;;;;15.90;11.48;;;;;;;8.45;47.40;100148.50;4974219;28;20031;-95
2022/02/14 16:33:47;;;;;;;21.85;14.38;;;;;;;8.16;47.78;100101.28;4959150;28;20094;-96
2022/02/14 16:36:15;;;;;;;19.42;13.95;;;;;;;8.62;47.38;100194.22;4971478;28;20467;-95
2022/02/14 16:38:41;;;;;;;21.02;12.40;;;;;;;8.81;47.64;100220.41;4952211;29;20055;-96
2022/02/14 16:41:06;;;;;;;17.00;11.75;;;;;;;8.68;47.90;100219.94;4939517;29;20026;-95
2022/02/14 16:43:32;;;;;;;19.80;13.43;;;;;;;9.01;48.05;100247.47;4939349;29;20023;-95
2022/02/14 16:45:58;;;;;;;20.88;13.75;;;;;;;8.81;47.58;100232.75;4939353;29;20031;-95
2022/02/14 16:48:24;;;;;;;17.40;12.45;;;;;;;9.08;47.96;100277.47;4954326;28;20035;-95
2022/02/14 16:50:49;;;;;;;19.50;12.88;;;;;;;7.98;48.27;100103.88;4939209;29;20412;-96
2022/02/14 16:53:15;;;;;;;29.02;19.85;;;;;;;9.12;47.99;100291.19;4939366;29;20023;-95
2022/02/14 16:55:42;;;;;;;25.67;16.85;;;;;;;8.36;48.19;100169.63;4955222;29;20113;-96
2022/02/14 16:58:08;;;;;;;20.95;13.60;;;;;;;8.69;48.50;100211.06;4939018;29;20035;-96
2022/02/14 17:00:35;;;;;;;30.95;18.33;;;;;;;7.90;48.73;100122.22;4939255;29;20031;-96
2022/02/14 17:03:01;;;;;;;29.67;18.55;;;;;;;9.01;48.67;100288.78;4939171;29;20038;-95
2022/02/14 17:05:27;;;;;;;32.50;18.75;;;;;;;8.44;48.93;100202.09;4939231;29;20034;-96
2022/02/14 17:07:54;;;;;;;24.92;14.93;;;;;;;8.99;48.63;100290.72;4938963;29;20497;-95
2022/02/14 17:10:20;;;;;;;20.25;12.38;;;;;;;8.51;48.99;100204.97;4939093;29;20535;-96
2022/02/14 17:12:45;;;;;;;18.20;10.15;;;;;;;8.19;49.12;100164.16;4938881;29;20031;-95
2022/02/14 17:15:11;;;;;;;12.35;9.70;;;;;;;8.60;49.06;100246.19;4938931;29;20031;-96
2022/02/14 17:17:38;;;;;;;21.92;12.00;;;;;;;8.47;49.55;100214.13;4939070;29;20111;-96
2022/02/14 17:20:10;;;;;;;21.05;14.20;;;;;;;8.52;49.16;100225.03;4938991;29;20102;-96
2022/02/14 17:22:37;;;;;;;22.38;14.07;;;;;;;8.72;49.24;100257.34;4938892;29;20051;-95
2022/02/14 17:25:03;;;;;;;33.15;17.10;;;;;;;8.70;49.63;100268.00;4938346;29;20118;-92
2022/02/14 17:27:28;;;;;;;22.25;14.38;;;;;;;8.70;49.75;100261.94;4938333;29;20055;-93
2022/02/14 17:29:54;;;;;;;19.80;12.35;;;;;;;8.27;49.77;100176.56;4938502;29;20074;-93
2022/02/14 17:32:19;;;;;;;21.77;13.20;;;;;;;8.91;49.79;100294.06;4938328;29;20054;-93
2022/02/14 17:34:45;;;;;;;17.55;12.02;;;;;;;8.41;49.48;100218.19;4938336;29;20031;-93
2022/02/14 17:37:11;;;;;;;14.05;9.50;;;;;;;8.88;50.27;100284.66;4938254;29;20516;-94
2022/02/14 17:39:39;;;;;;;20.80;13.20;;;;;;;8.89;49.90;100283.69;4955399;29;20031;-93
2022/02/14 17:42:05;;;;;;;22.52;13.07;;;;;;;8.75;49.73;100262.31;4953748;29;20031;-92
2022/02/14 17:44:30;;;;;;;14.23;9.45;;;;;;;8.82;49.75;100273.91;4938301;29;20034;-93
2022/02/14 17:46:56;;;;;;;16.13;10.43;;;;;;;8.40;49.94;100206.00;4938038;29;20504;-92
2022/02/14 17:49:21;;;;;;;13.32;9.32;;;;;;;7.75;50.20;100114.97;4938136;29;20035;-92
2022/02/14 17:51:47;;;;;;;15.25;10.15;;;;;;;8.55;49.83;100246.63;4937958;29;20042;-93
2022/02/14 17:54:13;;;;;;;14.45;9.07;;;;;;;8.62;49.98;100269.72;4937923;29;20046;-93
2022/02/14 17:56:38;;;;;;;11.88;8.40;;;;;;;8.71;50.42;100290.72;4937639;29;20027;-93
2022/02/14 17:59:04;;;;;;;11.35;8.23;;;;;;;7.67;50.50;100120.94;4936631;29;20027;-93
2022/02/14 18:01:30;;;;;;;15.50;8.73;;;;;;;8.76;50.48;100285.84;4937472;29;20023;-93
2022/02/14 18:03:55;;;;;;;11.75;8.10;;;;;;;8.02;50.46;100187.75;4937338;29;20031;-93
2022/02/14 18:06:21;;;;;;;15.63;9.88;;;;;;;8.63;50.33;100264.31;4937335;29;20394;-92
2022/02/14 18:08:47;;;;;;;15.43;10.43;;;;;;;8.46;50.58;100233.53;4937461;29;20098;-93
2022/02/14 18:11:12;;;;;;;10.98;7.47;;;;;;;8.49;50.78;100249.03;4937426;29;20480;-93
2022/02/14 18:13:38;;;;;;;15.73;8.38;;;;;;;8.57;50.81;100243.84;4937546;29;20030;-93
2022/02/14 18:16:05;;;;;;;17.73;11.07;;;;;;;8.49;50.79;100233.25;4937295;29;20579;-92
2022/02/14 18:18:30;;;;;;;20.10;13.85;;;;;;;8.31;51.02;100190.25;4937138;29;20027;-93
2022/02/14 18:20:56;;;;;;;21.35;14.32;;;;;;;8.60;50.86;100252.28;4937630;29;20113;-92
2022/02/14 18:23:22;;;;;;;25.13;16.95;;;;;;;8.83;50.98;100265.84;4937684;29;20110;-92
2022/02/14 18:25:47;;;;;;;21.42;12.20;;;;;;;8.30;51.07;100202.56;4937225;29;20090;-92
2022/02/14 18:28:13;;;;;;;15.68;10.10;;;;;;;8.19;50.83;100174.66;4936877;29;20024;-93
2022/02/14 18:30:40;;;;;;;17.67;9.32;;;;;;;8.80;50.94;100281.13;4937161;29;20023;-92
2022/02/14 18:33:06;;;;;;;19.48;11.68;;;;;;;8.77;50.86;100282.25;4937167;29;20027;-93
2022/02/14 18:35:32;;;;;;;23.05;13.75;;;;;;;8.01;51.38;100186.09;4937002;29;20118;-92
2022/02/14 18:37:57;;;;;;;20.90;12.13;;;;;;;8.47;51.24;100253.63;4937061;29;20631;-92
2022/02/14 18:40:25;;;;;;;21.77;13.70;;;;;;;8.51;51.45;100279.50;4937330;29;20034;-93
2022/02/14 18:42:52;;;;;;;23.48;14.30;;;;;;;7.51;51.63;100100.53;4937055;29;20170;-92
2022/02/14 18:45:17;;;;;;;29.08;17.38;;;;;;;7.46;51.34;100126.41;4952624;29;20035;-92
2022/02/14 18:47:47;;;;;;;20.90;13.57;;;;;;;8.66;51.72;100287.72;4936700;29;20390;-92
2022/02/14 18:50:14;;;;;;;20.58;12.80;;;;;;;6.83;51.00;100009.81;4936927;29;20039;-92
2022/02/14 18:52:41;;;;;;;20.38;13.30;;;;;;;8.15;51.44;100227.69;4936795;29;20113;-92
2022/02/14 18:55:07;;;;;;;17.42;11.70;;;;;;;8.50;51.54;100238.34;4937040;29;20164;-92
2022/02/14 18:57:33;;;;;;;18.50;12.35;;;;;;;8.22;51.22;100213.84;4936697;29;20063;-92
2022/02/14 18:59:59;;;;;;;21.42;12.43;;;;;;;8.53;51.67;100251.22;4936786;29;20078;-92
2022/02/14 19:02:24;;;;;;;17.30;12.32;;;;;;;8.70;51.47;100270.66;4936844;29;20027;-92
2022/02/14 19:04:50;;;;;;;16.77;12.18;;;;;;;8.40;51.73;100249.91;4936806;29;20031;-93
2022/02/14 19:07:15;;;;;;;17.88;12.43;;;;;;;8.01;51.62;100181.66;4936694;29;20540;-92
2022/02/14 19:09:41;;;;;;;19.65;13.32;;;;;;;8.32;51.89;100265.56;4937434;29;20035;-92
2022/02/14 19:12:08;;;;;;;16.55;11.75;;;;;;;8.17;51.52;100229.19;4940520;29;20568;-92
2022/02/14 19:14:33;;;;;;;17.48;12.18;;;;;;;8.28;51.38;100244.00;4940807;29;20031;-92
2022/02/14 19:16:59;;;;;;;13.65;9.98;;;;;;;8.57;51.75;100281.53;4940913;29;20119;-92
2022/02/14 19:19:25;;;;;;;26.23;14.55;;;;;;;7.96;51.42;100204.94;4940557;29;20042;-92
2022/02/14 19:21:51;;;;;;;30.02;18.92;;;;;;;8.49;51.48;100280.63;4940599;29;20031;-93
2022/02/14 19:24:18;;;;;;;15.88;11.32;;;;;;;7.45;51.51;100127.38;4940639;29;20065;-93
2022/02/14 19:26:44;;;;;;;15.88;9.88;;;;;;;7.15;51.57;100111.84;4940507;29;20547;-92
2022/02/14 19:29:10;;;;;;;11.98;8.98;;;;;;;8.36;51.71;100291.47;4940250;29;20027;-92
2022/02/14 19:31:38;;;;;;;11.27;8.98;;;;;;;7.69;51.60;100208.34;4957329;29;20038;-92
2022/02/14 19:34:14;;;;;;;12.65;9.77;;;;;;;7.69;51.98;100242.53;4940186;29;20027;-92
2022/02/14 19:36:41;;;;;;;15.35;9.95;;;;;;;7.96;51.99;100282.00;4940153;29;20027;-93
2022/02/14 19:39:07;;;;;;;15.77;12.38;;;;;;;7.11;52.19;100128.84;4940386;29;20034;-93
2022/02/14 19:41:34;;;;;;;11.82;9.68;;;;;;;7.92;52.21;100269.31;4940293;29;20031;-93
2022/02/14 19:44:00;;;;;;;12.82;9.40;;;;;;;8.00;52.47;100281.72;4940363;29;20023;-92
2022/02/14 19:46:26;;;;;;;13.93;9.07;;;;;;;8.15;52.41;100315.31;4940309;29;20460;-93
2022/02/14 19:48:51;;;;;;;12.80;9.27;;;;;;;8.14;52.94;100325.97;4940272;29;20027;-92
2022/02/14 19:51:17;;;;;;;9.63;7.70;;;;;;;7.69;52.69;100284.56;4940712;29;20094;-93
2022/02/14 19:53:42;;;;;;;9.45;7.20;;;;;;;7.84;53.37;100306.00;4940536;29;20145;-93
2022/02/14 19:56:11;;;;;;;9.13;6.72;;;;;;;6.89;53.38;100225.31;4940264;29;20035;-93
2022/02/14 19:58:36;;;;;;;8.63;7.25;;;;;;;7.30;53.45;100244.38;4940256;29;20028;-93
2022/02/14 20:01:03;;;;;;;11.00;7.38;;;;;;;7.26;53.75;100256.13;4956522;29;20042;-92
2022/02/14 20:03:29;;;;;;;12.10;8.07;;;;;;;7.63;53.74;100307.00;4968363;29;20055;-93
2022/02/14 20:05:54;;;;;;;11.25;8.20;;;;;;;7.37;53.72;100266.47;4965456;29;20023;-93
2022/02/14 20:08:20;;;;;;;10.05;8.60;;;;;;;7.59;53.88;100278.50;4965378;28;20015;-92
2022/02/14 20:10:48;;;;;;;11.73;8.95;;;;;;;7.52;53.69;100278.25;4959245;29;20047;-92